createdAt,value
2023-01-22T00:04:16.870Z,98.46
2023-01-22T00:09:17.603Z,98.14
2023-01-22T00:14:18.358Z,98.25
2023-01-22T00:19:19.050Z,98.71
2023-01-22T00:24:19.806Z,99.23
2023-01-22T00:29:20.498Z,98.97
2023-01-22T00:34:21.229Z,98.71
2023-01-22T00:39:21.980Z,98.92
2023-01-22T00:44:22.679Z,98.97
2023-01-22T00:49:23.485Z,98.82
2023-01-22T00:54:24.239Z,99.33
2023-01-22T00:59:24.960Z,99.23
2023-01-22T01:04:25.735Z,99.65
2023-01-22T01:09:26.465Z,99.75
2023-01-22T01:14:27.343Z,99.65
2023-01-22T01:19:35.053Z,99.23
2023-01-22T01:24:28.746Z,99.75
2023-01-22T01:29:29.603Z,99.65
2023-01-22T01:34:30.268Z,99.75
2023-01-22T01:39:31.021Z,99.54
2023-01-22T01:44:31.890Z,99.96
2023-01-22T01:49:32.561Z,99.65
2023-01-22T01:54:33.359Z,99.33
2023-01-22T01:59:34.101Z,99.54
2023-01-22T02:04:34.951Z,98.92
2023-01-22T02:09:35.640Z,99.13
2023-01-22T02:14:36.376Z,99.23
2023-01-22T02:19:37.251Z,99.44
2023-01-22T02:24:37.923Z,99.13
2023-01-22T02:29:38.664Z,99.44
2023-01-22T02:34:39.394Z,99.44
2023-01-22T02:39:40.235Z,99.54
2023-01-22T02:44:40.899Z,99.65
2023-01-22T02:49:41.622Z,99.44
2023-01-22T02:54:42.339Z,99.90
2023-01-22T02:59:43.179Z,99.99
2023-01-22T03:04:43.845Z,99.85
2023-01-22T03:09:44.572Z,99.44
2023-01-22T03:14:45.278Z,99.23
2023-01-22T03:19:46.110Z,98.86
2023-01-22T03:24:46.759Z,99.80
2023-01-22T03:29:47.499Z,99.54
2023-01-22T03:34:48.254Z,99.17
2023-01-22T03:39:49.102Z,99.13
2023-01-22T03:44:49.792Z,98.96
2023-01-22T03:49:50.508Z,98.96
2023-01-22T03:54:51.449Z,98.86
2023-01-22T03:59:52.103Z,98.92
2023-01-22T04:04:52.838Z,98.39
2023-01-22T04:09:53.590Z,98.60
2023-01-22T04:15:00.243Z,98.75
2023-01-22T04:19:56.016Z,98.86
2023-01-22T04:24:55.667Z,98.44
2023-01-22T04:29:56.391Z,98.13
2023-01-22T04:34:57.114Z,98.19
2023-01-22T04:39:57.956Z,97.88
2023-01-22T04:44:58.671Z,97.77
2023-01-22T04:49:59.416Z,97.52
2023-01-22T04:55:00.161Z,96.83
2023-01-22T05:00:01.004Z,97.04
2023-01-22T05:05:01.664Z,97.46
2023-01-22T05:10:02.391Z,97.14
2023-01-22T05:15:07.305Z,97.04
2023-01-22T05:20:04.706Z,96.94
2023-01-22T05:25:04.430Z,96.94
2023-01-22T05:30:05.243Z,97.46
2023-01-22T05:35:06.107Z,97.56
2023-01-22T05:40:06.777Z,97.25
2023-01-22T05:45:07.498Z,97.56
2023-01-22T05:50:08.312Z,98.34
2023-01-22T05:55:08.976Z,98.08
2023-01-22T06:00:09.694Z,97.98
2023-01-22T06:05:10.557Z,98.29
2023-01-22T06:10:11.227Z,98.50
2023-01-22T06:15:11.951Z,98.50
2023-01-22T06:20:12.799Z,98.55
2023-01-22T06:25:13.468Z,98.86
2023-01-22T06:30:14.103Z,98.86
2023-01-22T06:35:14.786Z,98.75
2023-01-22T06:40:15.827Z,99.17
2023-01-22T06:45:16.100Z,99.07
2023-01-22T06:50:17.156Z,99.02
2023-01-22T06:55:17.427Z,99.13
2023-01-22T07:00:18.621Z,98.92
2023-01-22T07:05:18.919Z,98.96
2023-01-22T07:10:20.007Z,98.50
2023-01-22T07:15:20.460Z,98.29
2023-01-22T07:20:21.079Z,98.60
2023-01-22T07:25:28.737Z,98.71
2023-01-22T07:30:22.427Z,98.82
2023-01-22T07:35:23.215Z,98.29
2023-01-22T07:40:23.835Z,98.60
2023-01-22T07:45:24.605Z,98.14
2023-01-22T07:50:25.342Z,97.83
2023-01-22T07:55:25.952Z,98.04
2023-01-22T08:00:26.640Z,97.83
2023-01-22T08:05:27.495Z,97.10
2023-01-22T08:10:28.119Z,97.58
2023-01-22T08:15:28.880Z,96.53
2023-01-22T08:20:29.543Z,96.01
2023-01-22T08:25:31.389Z,96.12
2023-01-22T08:30:31.067Z,95.03
2023-01-22T08:35:31.719Z,95.25
2023-01-22T08:40:32.398Z,95.29
2023-01-22T08:45:33.248Z,96.01
2023-01-22T08:50:33.878Z,96.06
2023-01-22T08:55:34.558Z,96.58
2023-01-22T09:00:35.236Z,96.79
2023-01-22T09:05:36.145Z,96.89
2023-01-22T09:10:36.803Z,96.64
2023-01-22T09:15:37.512Z,96.33
2023-01-22T09:20:38.308Z,96.01
2023-01-22T09:25:38.929Z,96.37
2023-01-22T09:30:39.657Z,96.79
2023-01-22T09:35:40.310Z,96.64
2023-01-22T09:40:41.130Z,96.53
2023-01-22T09:45:41.797Z,96.43
2023-01-22T09:50:42.487Z,96.48
2023-01-22T09:55:43.237Z,95.91
2023-01-22T10:00:44.033Z,96.48
2023-01-22T10:05:44.670Z,96.26
2023-01-22T10:10:45.356Z,96.43
2023-01-22T10:15:46.075Z,95.81
2023-01-22T10:20:46.849Z,95.50
2023-01-22T10:25:47.577Z,95.50
2023-01-22T10:30:48.384Z,95.81
2023-01-22T10:35:49.149Z,95.91
2023-01-22T10:40:49.879Z,94.93
2023-01-22T10:45:50.547Z,95.66
2023-01-22T10:50:51.220Z,95.70
2023-01-22T10:55:51.840Z,95.66
2023-01-22T11:00:52.694Z,96.59
2023-01-22T11:05:53.318Z,95.03
2023-01-22T11:10:53.990Z,95.72
2023-01-22T11:15:54.686Z,94.78
2023-01-22T11:20:55.451Z,95.97
2023-01-22T11:25:56.074Z,95.97
2023-01-22T11:30:56.836Z,95.35
2023-01-22T11:35:57.633Z,95.76
2023-01-22T11:40:58.240Z,95.66
2023-01-22T11:45:58.971Z,94.62
2023-01-22T11:51:05.552Z,94.51
2023-01-22T11:56:01.254Z,94.93
2023-01-22T12:01:00.862Z,94.82
2023-01-22T12:06:01.559Z,95.45
2023-01-22T12:11:02.227Z,95.25
2023-01-22T12:16:05.350Z,95.56
2023-01-22T12:21:03.655Z,95.45
2023-01-22T12:26:04.330Z,95.66
2023-01-22T12:31:05.150Z,95.97
2023-01-22T12:36:05.957Z,95.35
2023-01-22T12:41:08.723Z,95.56
2023-01-22T12:46:07.369Z,95.70
2023-01-22T12:51:08.090Z,96.33
2023-01-22T12:56:08.832Z,96.75
2023-01-22T13:01:09.574Z,97.27
2023-01-22T13:06:10.204Z,97.78
2023-01-22T13:11:10.887Z,97.47
2023-01-22T13:16:11.787Z,97.58
2023-01-22T13:21:12.447Z,97.62
2023-01-22T13:26:13.170Z,97.94
2023-01-22T13:31:13.949Z,98.72
2023-01-22T13:36:14.803Z,98.25
2023-01-22T13:41:23.435Z,98.56
2023-01-22T13:46:16.084Z,98.52
2023-01-22T13:51:16.873Z,98.25
2023-01-22T13:56:17.723Z,98.62
2023-01-22T14:01:18.371Z,97.89
2023-01-22T14:06:19.049Z,98.31
2023-01-22T14:11:19.741Z,97.99
2023-01-22T14:16:20.661Z,98.31
2023-01-22T14:21:21.324Z,98.10
2023-01-22T14:26:22.044Z,98.31
2023-01-22T14:31:23.869Z,97.78
2023-01-22T14:36:23.606Z,98.87
2023-01-22T14:41:24.269Z,99.08
2023-01-22T14:46:24.945Z,99.18
2023-01-22T14:51:25.812Z,99.18
2023-01-22T14:56:26.521Z,99.29
2023-01-22T15:01:27.198Z,99.81
2023-01-22T15:06:27.996Z,99.81
2023-01-22T15:11:28.603Z,99.50
2023-01-22T15:16:29.370Z,99.04
2023-01-22T15:21:30.099Z,99.08
2023-01-22T15:26:30.848Z,98.97
2023-01-22T15:31:31.494Z,98.77
2023-01-22T15:36:32.162Z,98.97
2023-01-22T15:41:32.972Z,99.08
2023-01-22T15:46:33.571Z,99.29
2023-01-22T15:51:34.242Z,99.60
2023-01-22T15:56:35.023Z,99.60
2023-01-22T16:01:35.716Z,98.41
2023-01-22T16:06:36.450Z,98.56
2023-01-22T16:11:37.304Z,98.77
2023-01-22T16:16:38.242Z,98.66
2023-01-22T16:21:38.453Z,98.97
2023-01-22T16:26:39.290Z,98.66
2023-01-22T16:31:39.981Z,98.25
2023-01-22T16:36:40.665Z,98.14
2023-01-22T16:41:41.496Z,98.56
2023-01-22T16:46:42.204Z,98.46
2023-01-22T16:51:42.907Z,98.35
2023-01-22T16:56:43.638Z,98.66
2023-01-22T17:01:44.559Z,98.77
2023-01-22T17:06:45.267Z,98.87
2023-01-22T17:11:45.983Z,99.14
2023-01-22T17:16:46.819Z,98.62
2023-01-22T17:21:47.489Z,97.78
2023-01-22T17:26:48.274Z,97.99
2023-01-22T17:31:49.173Z,97.68
2023-01-22T17:36:49.447Z,97.99
2023-01-22T17:41:50.166Z,97.99
2023-01-22T17:46:51.008Z,97.68
2023-01-22T17:51:51.681Z,97.47
2023-01-22T17:56:52.400Z,98.14
2023-01-22T18:01:53.226Z,98.56
2023-01-22T18:06:54.064Z,98.87
2023-01-22T18:11:54.754Z,98.97
2023-01-22T18:16:55.520Z,98.52
2023-01-22T18:21:56.337Z,98.77
2023-01-22T18:26:56.995Z,98.66
2023-01-22T18:31:57.748Z,98.35
2023-01-22T18:36:58.485Z,97.99
2023-01-22T18:41:59.333Z,98.14
2023-01-22T18:47:00.032Z,98.14
2023-01-22T18:52:00.738Z,98.77
2023-01-22T18:57:01.478Z,98.77
2023-01-22T19:02:02.436Z,98.35
2023-01-22T19:07:03.165Z,98.97
2023-01-22T19:12:03.914Z,98.97
2023-01-22T19:17:04.592Z,98.35
2023-01-22T19:22:05.443Z,98.14
2023-01-22T19:27:06.087Z,98.25
2023-01-22T19:32:06.839Z,98.14
2023-01-22T19:37:07.656Z,97.94
2023-01-22T19:42:15.345Z,98.14
2023-01-22T19:47:09.045Z,98.77
2023-01-22T19:52:09.901Z,98.25
2023-01-22T19:57:10.644Z,98.35
2023-01-22T20:02:11.471Z,98.29
2023-01-22T20:07:12.256Z,98.50
2023-01-22T20:12:12.940Z,98.35
2023-01-22T20:17:13.668Z,98.35
2023-01-22T20:22:14.607Z,98.14
2023-01-22T20:27:15.375Z,97.83
2023-01-22T20:32:16.111Z,98.20
2023-01-22T20:37:16.928Z,97.58
2023-01-22T20:42:17.871Z,96.75
2023-01-22T20:47:18.322Z,96.85
2023-01-22T20:52:19.154Z,96.79
2023-01-22T20:57:20.704Z,96.75
2023-01-22T21:02:20.551Z,96.79
2023-01-22T21:07:21.364Z,97.31
2023-01-22T21:12:22.066Z,97.10
2023-01-22T21:17:22.884Z,97.00
2023-01-22T21:22:23.725Z,97.31
2023-01-22T21:27:24.526Z,97.20
2023-01-22T21:32:25.250Z,97.14
2023-01-22T21:37:26.109Z,97.52
2023-01-22T21:42:27.069Z,97.31
2023-01-22T21:47:27.835Z,97.00
2023-01-22T21:52:28.547Z,96.64
2023-01-22T21:57:29.378Z,96.33
2023-01-22T22:02:31.472Z,96.33
2023-01-22T22:07:31.052Z,96.33
2023-01-22T22:12:31.251Z,96.58
2023-01-22T22:17:32.102Z,96.58
2023-01-22T22:22:32.923Z,97.00
2023-01-22T22:27:33.687Z,97.41
2023-01-22T22:32:34.502Z,96.95
2023-01-22T22:37:35.397Z,96.95
2023-01-22T22:42:36.075Z,95.91
2023-01-22T22:47:37.036Z,95.91
2023-01-22T22:52:37.961Z,95.81
2023-01-22T22:57:38.651Z,95.75
2023-01-22T23:02:39.362Z,95.64
2023-01-22T23:07:40.239Z,96.06
2023-01-22T23:12:40.913Z,95.60
2023-01-22T23:17:41.673Z,95.29
2023-01-22T23:22:42.476Z,95.60
2023-01-22T23:27:43.310Z,95.39
2023-01-22T23:32:44.004Z,95.50
2023-01-22T23:37:44.733Z,95.50
2023-01-22T23:42:45.663Z,95.81
2023-01-22T23:47:46.432Z,96.01
2023-01-22T23:52:47.170Z,95.45
2023-01-22T23:57:47.910Z,95.14
